Terminal Aerodrome Forecast
Issued by NWS

Home | Current Version | Previous Version | Text Only | Print | Product List | Glossary On
Versions: 1 2 3 4 5 6 7 8 9 10 11 12 13 14 15 16
000
FTUS45 KBOU 011739
TAFBJC
TAF
KBJC 011739Z 0118/0218 34007KT 5SM -SN BR SCT009 OVC023
      TEMPO 0118/0120 2SM -SN BR OVC009
     FM012000 05008KT P6SM -SHSNRA SCT012 OVC025
      TEMPO 0120/0123 4SM -SHSN BKN010
     FM020300 VRB04KT P6SM VCSH SCT015 BKN025 OVC050
     FM020500 26005KT P6SM SCT025 BKN050
     FM020900 VRB04KT P6SM SCT050 SCT100=

USA.gov is the U.S. government's official web portal to all federal, state and local government web resources and services.